sensor_id;sensor_type;location;lat;lon;timestamp;pressure;altitude;pressure_sealevel;temperature;humidity
46598;BME280;32318;48.858;8.252;2022-08-18T00:05:41;99901.66;;;21.24;60.62
46598;BME280;32318;48.858;8.252;2022-08-18T00:13:41;99897.44;;;21.16;61.35
46598;BME280;32318;48.858;8.252;2022-08-18T00:21:42;99905.34;;;21.18;62.06
46598;BME280;32318;48.858;8.252;2022-08-18T00:29:42;99906.66;;;21.15;62.41
46598;BME280;32318;48.858;8.252;2022-08-18T00:37:43;99899.72;;;21.08;62.88
46598;BME280;32318;48.858;8.252;2022-08-18T00:45:44;99899.88;;;21.01;62.85
46598;BME280;32318;48.858;8.252;2022-08-18T00:53:52;99903.56;;;20.95;64.84
46598;BME280;32318;48.858;8.252;2022-08-18T01:01:57;99899.09;;;20.89;63.85
46598;BME280;32318;48.858;8.252;2022-08-18T01:10:02;99889.78;;;20.84;63.98
46598;BME280;32318;48.858;8.252;2022-08-18T01:18:08;99896.50;;;20.82;65.82
46598;BME280;32318;48.858;8.252;2022-08-18T01:26:28;99910.81;;;20.77;64.49
46598;BME280;32318;48.858;8.252;2022-08-18T01:34:30;99912.91;;;20.75;65.20
46598;BME280;32318;48.858;8.252;2022-08-18T01:42:30;99908.78;;;20.73;66.08
46598;BME280;32318;48.858;8.252;2022-08-18T01:50:31;99897.69;;;20.74;66.32
46598;BME280;32318;48.858;8.252;2022-08-18T01:58:35;99898.28;;;20.76;66.56
46598;BME280;32318;48.858;8.252;2022-08-18T02:06:35;99895.59;;;20.76;66.40
46598;BME280;32318;48.858;8.252;2022-08-18T02:14:36;99888.63;;;20.80;66.26
46598;BME280;32318;48.858;8.252;2022-08-18T02:22:38;99891.69;;;20.84;66.72
46598;BME280;32318;48.858;8.252;2022-08-18T02:30:38;99882.34;;;20.80;67.15
46598;BME280;32318;48.858;8.252;2022-08-18T02:38:40;99863.13;;;20.69;66.84
46598;BME280;32318;48.858;8.252;2022-08-18T02:46:40;99859.34;;;20.71;67.01
46598;BME280;32318;48.858;8.252;2022-08-18T02:54:42;99847.22;;;20.73;67.17
46598;BME280;32318;48.858;8.252;2022-08-18T03:02:49;99854.06;;;20.76;67.77
46598;BME280;32318;48.858;8.252;2022-08-18T03:10:51;99847.00;;;20.75;67.24
46598;BME280;32318;48.858;8.252;2022-08-18T03:18:52;99851.22;;;20.71;67.35
46598;BME280;32318;48.858;8.252;2022-08-18T03:26:53;99836.59;;;20.72;67.76
46598;BME280;32318;48.858;8.252;2022-08-18T03:34:55;99835.31;;;20.74;67.57
46598;BME280;32318;48.858;8.252;2022-08-18T03:42:56;99823.28;;;20.70;67.60
46598;BME280;32318;48.858;8.252;2022-08-18T03:51:06;99824.22;;;20.64;69.26
46598;BME280;32318;48.858;8.252;2022-08-18T03:59:15;99833.53;;;20.68;68.99
46598;BME280;32318;48.858;8.252;2022-08-18T04:07:16;99843.94;;;20.59;68.49
46598;BME280;32318;48.858;8.252;2022-08-18T04:15:18;99836.53;;;20.55;69.20
46598;BME280;32318;48.858;8.252;2022-08-18T04:23:18;99841.38;;;20.52;69.36
46598;BME280;32318;48.858;8.252;2022-08-18T04:31:18;99855.41;;;20.49;69.27
46598;BME280;32318;48.858;8.252;2022-08-18T04:39:23;99856.38;;;20.43;69.96
46598;BME280;32318;48.858;8.252;2022-08-18T04:47:24;99870.38;;;20.40;69.83
46598;BME280;32318;48.858;8.252;2022-08-18T04:55:25;99897.88;;;20.32;70.20
46598;BME280;32318;48.858;8.252;2022-08-18T05:03:28;99908.13;;;20.18;70.04
46598;BME280;32318;48.858;8.252;2022-08-18T05:11:29;99922.03;;;20.10;70.54
46598;BME280;32318;48.858;8.252;2022-08-18T05:19:33;99913.44;;;20.01;70.90
46598;BME280;32318;48.858;8.252;2022-08-18T05:27:37;99917.22;;;20.00;72.25
46598;BME280;32318;48.858;8.252;2022-08-18T05:35:49;99903.91;;;19.98;73.04
46598;BME280;32318;48.858;8.252;2022-08-18T05:43:50;99900.34;;;19.98;71.78
46598;BME280;32318;48.858;8.252;2022-08-18T05:52:00;99889.16;;;20.06;72.79
46598;BME280;32318;48.858;8.252;2022-08-18T06:00:03;99883.97;;;20.16;72.65
46598;BME280;32318;48.858;8.252;2022-08-18T06:08:11;99877.13;;;20.26;73.16
46598;BME280;32318;48.858;8.252;2022-08-18T06:16:48;99875.22;;;20.38;72.24
46598;BME280;32318;48.858;8.252;2022-08-18T06:33:14;99892.69;;;20.42;73.21
46598;BME280;32318;48.858;8.252;2022-08-18T06:41:25;99897.72;;;20.50;72.17
46598;BME280;32318;48.858;8.252;2022-08-18T06:49:37;99906.34;;;20.47;72.55
46598;BME280;32318;48.858;8.252;2022-08-18T06:57:56;99912.59;;;20.48;72.74
46598;BME280;32318;48.858;8.252;2022-08-18T07:06:07;99931.69;;;20.41;73.12
46598;BME280;32318;48.858;8.252;2022-08-18T07:14:19;99936.53;;;20.39;73.02
46598;BME280;32318;48.858;8.252;2022-08-18T07:22:20;99955.03;;;20.42;72.18
46598;BME280;32318;48.858;8.252;2022-08-18T07:38:35;99955.28;;;20.52;72.15
46598;BME280;32318;48.858;8.252;2022-08-18T07:46:49;99943.38;;;20.42;72.31
46598;BME280;32318;48.858;8.252;2022-08-18T07:55:03;99961.16;;;20.37;72.61
46598;BME280;32318;48.858;8.252;2022-08-18T08:11:26;99936.28;;;20.52;72.27
46598;BME280;32318;48.858;8.252;2022-08-18T08:19:38;99961.38;;;20.72;72.76
46598;BME280;32318;48.858;8.252;2022-08-18T08:27:53;99970.22;;;20.91;73.64
46598;BME280;32318;48.858;8.252;2022-08-18T08:36:06;99961.06;;;21.21;72.85
46598;BME280;32318;48.858;8.252;2022-08-18T08:44:13;99961.06;;;21.21;71.40
46598;BME280;32318;48.858;8.252;2022-08-18T08:52:20;99936.31;;;21.34;71.17
46598;BME280;32318;48.858;8.252;2022-08-18T09:00:23;99942.81;;;21.62;70.14
46598;BME280;32318;48.858;8.252;2022-08-18T09:08:27;99933.97;;;21.84;69.65
46598;BME280;32318;48.858;8.252;2022-08-18T09:24:51;99897.88;;;21.71;70.18
46598;BME280;32318;48.858;8.252;2022-08-18T09:33:11;99933.28;;;21.76;69.91
46598;BME280;32318;48.858;8.252;2022-08-18T09:41:24;99921.44;;;22.00;69.34
46598;BME280;32318;48.858;8.252;2022-08-18T09:49:40;99937.06;;;22.27;69.36
46598;BME280;32318;48.858;8.252;2022-08-18T09:57:40;99943.22;;;22.39;68.48
46598;BME280;32318;48.858;8.252;2022-08-18T10:05:55;99958.66;;;22.33;68.85
46598;BME280;32318;48.858;8.252;2022-08-18T10:14:14;99962.22;;;22.17;69.31
46598;BME280;32318;48.858;8.252;2022-08-18T10:22:51;99932.94;;;22.07;69.19
46598;BME280;32318;48.858;8.252;2022-08-18T10:31:06;99893.91;;;22.13;69.68
46598;BME280;32318;48.858;8.252;2022-08-18T10:39:11;99887.22;;;22.60;68.32
46598;BME280;32318;48.858;8.252;2022-08-18T10:47:23;99883.94;;;23.08;67.18
46598;BME280;32318;48.858;8.252;2022-08-18T10:55:48;99877.13;;;23.32;66.11
46598;BME280;32318;48.858;8.252;2022-08-18T11:04:05;99850.22;;;23.36;64.97
46598;BME280;32318;48.858;8.252;2022-08-18T11:12:11;99862.44;;;23.33;63.33
46598;BME280;32318;48.858;8.252;2022-08-18T11:20:13;99863.41;;;23.49;62.75
46598;BME280;32318;48.858;8.252;2022-08-18T11:28:20;99859.88;;;23.49;62.65
46598;BME280;32318;48.858;8.252;2022-08-18T11:36:29;99847.22;;;23.70;62.39
46598;BME280;32318;48.858;8.252;2022-08-18T11:44:30;99835.53;;;23.75;61.62
46598;BME280;32318;48.858;8.252;2022-08-18T11:52:31;99834.16;;;24.10;61.10
46598;BME280;32318;48.858;8.252;2022-08-18T12:09:14;99818.53;;;24.64;58.43
46598;BME280;32318;48.858;8.252;2022-08-18T12:17:15;99806.72;;;24.37;59.59
46598;BME280;32318;48.858;8.252;2022-08-18T12:25:17;99797.78;;;24.52;58.73
46598;BME280;32318;48.858;8.252;2022-08-18T12:33:18;99804.88;;;24.64;58.71
46598;BME280;32318;48.858;8.252;2022-08-18T12:41:18;99803.81;;;24.65;59.03
46598;BME280;32318;48.858;8.252;2022-08-18T12:49:21;99769.47;;;24.69;58.43
46598;BME280;32318;48.858;8.252;2022-08-18T12:57:25;99778.50;;;25.11;57.06
46598;BME280;32318;48.858;8.252;2022-08-18T13:05:26;99775.53;;;25.23;56.79
46598;BME280;32318;48.858;8.252;2022-08-18T13:13:27;99766.22;;;25.24;56.95
46598;BME280;32318;48.858;8.252;2022-08-18T13:21:27;99748.47;;;25.31;56.17
46598;BME280;32318;48.858;8.252;2022-08-18T13:29:27;99720.34;;;25.46;55.62
46598;BME280;32318;48.858;8.252;2022-08-18T13:37:28;99723.00;;;25.72;55.59
46598;BME280;32318;48.858;8.252;2022-08-18T13:45:33;99706.09;;;25.65;56.06
46598;BME280;32318;48.858;8.252;2022-08-18T13:53:36;99706.00;;;25.91;54.25
46598;BME280;32318;48.858;8.252;2022-08-18T14:01:38;99697.75;;;26.01;54.75
46598;BME280;32318;48.858;8.252;2022-08-18T14:09:40;99708.91;;;26.15;54.93
46598;BME280;32318;48.858;8.252;2022-08-18T14:17:41;99702.06;;;26.18;54.63
46598;BME280;32318;48.858;8.252;2022-08-18T14:25:41;99701.94;;;26.38;53.20
46598;BME280;32318;48.858;8.252;2022-08-18T14:34:00;99700.81;;;26.44;52.86
46598;BME280;32318;48.858;8.252;2022-08-18T14:42:02;99717.25;;;26.39;52.57
46598;BME280;32318;48.858;8.252;2022-08-18T14:50:02;99721.34;;;26.47;52.84
46598;BME280;32318;48.858;8.252;2022-08-18T14:58:03;99718.25;;;26.54;51.31
46598;BME280;32318;48.858;8.252;2022-08-18T15:06:06;99713.97;;;26.37;52.76
46598;BME280;32318;48.858;8.252;2022-08-18T15:14:07;99721.38;;;26.37;53.59
46598;BME280;32318;48.858;8.252;2022-08-18T15:22:08;99736.22;;;26.25;54.07
46598;BME280;32318;48.858;8.252;2022-08-18T15:30:27;99739.78;;;26.21;54.51
46598;BME280;32318;48.858;8.252;2022-08-18T15:38:27;99733.00;;;26.13;54.95
46598;BME280;32318;48.858;8.252;2022-08-18T15:46:30;99740.66;;;26.11;54.85
46598;BME280;32318;48.858;8.252;2022-08-18T15:54:31;99743.38;;;26.06;54.83
46598;BME280;32318;48.858;8.252;2022-08-18T16:02:31;99748.06;;;26.00;54.69
46598;BME280;32318;48.858;8.252;2022-08-18T16:10:34;99738.19;;;26.04;54.17
46598;BME280;32318;48.858;8.252;2022-08-18T16:18:36;99729.44;;;26.02;53.62
46598;BME280;32318;48.858;8.252;2022-08-18T16:26:36;99735.81;;;25.87;53.20
46598;BME280;32318;48.858;8.252;2022-08-18T16:34:36;99731.44;;;25.86;53.10
46598;BME280;32318;48.858;8.252;2022-08-18T16:42:38;99730.41;;;25.66;51.97
46598;BME280;32318;48.858;8.252;2022-08-18T16:50:39;99730.72;;;25.44;52.08
46598;BME280;32318;48.858;8.252;2022-08-18T16:58:41;99729.34;;;25.42;52.03
46598;BME280;32318;48.858;8.252;2022-08-18T17:07:02;99726.34;;;25.23;52.33
46598;BME280;32318;48.858;8.252;2022-08-18T17:15:04;99710.25;;;25.05;52.45
46598;BME280;32318;48.858;8.252;2022-08-18T17:23:05;99714.59;;;24.96;51.92
46598;BME280;32318;48.858;8.252;2022-08-18T17:31:06;99727.44;;;24.75;52.65
46598;BME280;32318;48.858;8.252;2022-08-18T17:39:07;99727.16;;;24.71;54.00
46598;BME280;32318;48.858;8.252;2022-08-18T17:47:18;99729.00;;;24.55;55.73
46598;BME280;32318;48.858;8.252;2022-08-18T17:55:26;99725.72;;;24.48;56.22
46598;BME280;32318;48.858;8.252;2022-08-18T18:03:27;99724.88;;;24.42;56.37
46598;BME280;32318;48.858;8.252;2022-08-18T18:11:33;99730.91;;;24.39;56.64
46598;BME280;32318;48.858;8.252;2022-08-18T18:19:35;99740.69;;;24.30;57.26
46598;BME280;32318;48.858;8.252;2022-08-18T18:43:47;99751.84;;;24.18;58.34
46598;BME280;32318;48.858;8.252;2022-08-18T18:51:59;99757.53;;;24.11;58.62
46598;BME280;32318;48.858;8.252;2022-08-18T19:16:35;99761.16;;;23.79;61.04
46598;BME280;32318;48.858;8.252;2022-08-18T19:24:51;99775.81;;;23.68;60.11
46598;BME280;32318;48.858;8.252;2022-08-18T19:32:56;99774.09;;;23.57;60.29
46598;BME280;32318;48.858;8.252;2022-08-18T19:41:07;99774.31;;;23.50;61.26
46598;BME280;32318;48.858;8.252;2022-08-18T19:57:32;99762.78;;;23.38;62.39
46598;BME280;32318;48.858;8.252;2022-08-18T20:06:00;99789.97;;;23.32;63.45
46598;BME280;32318;48.858;8.252;2022-08-18T20:14:13;99790.72;;;23.23;63.03
46598;BME280;32318;48.858;8.252;2022-08-18T20:38:28;99832.09;;;22.70;62.63
46598;BME280;32318;48.858;8.252;2022-08-18T20:55:03;99836.78;;;22.52;64.42
46598;BME280;32318;48.858;8.252;2022-08-18T21:03:08;99831.94;;;22.54;64.00
46598;BME280;32318;48.858;8.252;2022-08-18T21:11:25;99825.16;;;22.57;65.26
46598;BME280;32318;48.858;8.252;2022-08-18T21:19:27;99814.22;;;22.52;63.82
46598;BME280;32318;48.858;8.252;2022-08-18T21:27:33;99834.34;;;22.51;64.85
46598;BME280;32318;48.858;8.252;2022-08-18T21:35:35;99838.63;;;22.47;64.38
46598;BME280;32318;48.858;8.252;2022-08-18T21:43:42;99840.78;;;22.45;64.77
46598;BME280;32318;48.858;8.252;2022-08-18T21:51:46;99860.34;;;22.42;65.07
46598;BME280;32318;48.858;8.252;2022-08-18T22:08:21;99854.81;;;22.36;64.90
46598;BME280;32318;48.858;8.252;2022-08-18T22:16:32;99848.69;;;22.29;64.94
46598;BME280;32318;48.858;8.252;2022-08-18T22:24:37;99849.47;;;22.24;65.39
46598;BME280;32318;48.858;8.252;2022-08-18T22:32:37;99845.03;;;22.18;65.26
46598;BME280;32318;48.858;8.252;2022-08-18T22:40:37;99881.88;;;22.09;65.29
46598;BME280;32318;48.858;8.252;2022-08-18T22:48:38;99852.72;;;22.04;65.35
46598;BME280;32318;48.858;8.252;2022-08-18T22:56:39;99882.47;;;21.94;65.93
46598;BME280;32318;48.858;8.252;2022-08-18T23:04:42;99870.78;;;21.93;66.45
46598;BME280;32318;48.858;8.252;2022-08-18T23:12:43;99873.25;;;21.95;66.40
46598;BME280;32318;48.858;8.252;2022-08-18T23:20:47;99878.63;;;21.90;66.54
46598;BME280;32318;48.858;8.252;2022-08-18T23:28:48;99869.06;;;21.87;66.68
46598;BME280;32318;48.858;8.252;2022-08-18T23:36:54;99869.56;;;21.84;67.68
46598;BME280;32318;48.858;8.252;2022-08-18T23:44:55;99863.53;;;21.82;67.18
46598;BME280;32318;48.858;8.252;2022-08-18T23:53:03;99872.69;;;21.76;67.77
